sensor_id;sensor_type;location;lat;lon;timestamp;temperature;humidity
44166;DHT22;30476;53.468;9.826;2023-04-25T00:01:18;10.00;99.90
44166;DHT22;30476;53.468;9.826;2023-04-25T00:03:44;10.00;99.90
44166;DHT22;30476;53.468;9.826;2023-04-25T00:06:11;10.00;99.90
44166;DHT22;30476;53.468;9.826;2023-04-25T00:08:37;10.00;99.90
44166;DHT22;30476;53.468;9.826;2023-04-25T00:11:03;10.10;99.90
44166;DHT22;30476;53.468;9.826;2023-04-25T00:13:29;10.00;99.90
44166;DHT22;30476;53.468;9.826;2023-04-25T00:15:55;10.00;99.90
44166;DHT22;30476;53.468;9.826;2023-04-25T00:18:22;10.00;99.90
44166;DHT22;30476;53.468;9.826;2023-04-25T00:20:48;9.90;99.90
44166;DHT22;30476;53.468;9.826;2023-04-25T00:23:15;9.90;99.90
44166;DHT22;30476;53.468;9.826;2023-04-25T00:25:44;9.90;99.90
44166;DHT22;30476;53.468;9.826;2023-04-25T00:28:11;9.90;99.90
44166;DHT22;30476;53.468;9.826;2023-04-25T00:30:38;9.90;99.90
44166;DHT22;30476;53.468;9.826;2023-04-25T00:33:04;9.90;99.90
44166;DHT22;30476;53.468;9.826;2023-04-25T00:35:29;9.90;99.90
44166;DHT22;30476;53.468;9.826;2023-04-25T00:37:55;9.80;99.90
44166;DHT22;30476;53.468;9.826;2023-04-25T00:40:21;9.80;99.90
44166;DHT22;30476;53.468;9.826;2023-04-25T00:42:47;9.80;99.90
44166;DHT22;30476;53.468;9.826;2023-04-25T00:45:14;9.90;99.90
44166;DHT22;30476;53.468;9.826;2023-04-25T00:47:41;9.80;99.90
44166;DHT22;30476;53.468;9.826;2023-04-25T00:50:08;9.80;99.90
44166;DHT22;30476;53.468;9.826;2023-04-25T00:52:34;9.80;99.90
44166;DHT22;30476;53.468;9.826;2023-04-25T00:55:00;9.80;99.90
44166;DHT22;30476;53.468;9.826;2023-04-25T00:57:26;9.70;99.90
44166;DHT22;30476;53.468;9.826;2023-04-25T00:59:53;9.70;99.90
44166;DHT22;30476;53.468;9.826;2023-04-25T01:02:19;9.60;99.90
44166;DHT22;30476;53.468;9.826;2023-04-25T01:04:46;9.60;99.90
44166;DHT22;30476;53.468;9.826;2023-04-25T01:07:13;9.70;99.90
44166;DHT22;30476;53.468;9.826;2023-04-25T01:09:39;9.60;99.90
44166;DHT22;30476;53.468;9.826;2023-04-25T01:12:05;9.60;99.90
44166;DHT22;30476;53.468;9.826;2023-04-25T01:14:31;9.60;99.90
44166;DHT22;30476;53.468;9.826;2023-04-25T01:16:57;9.60;99.90
44166;DHT22;30476;53.468;9.826;2023-04-25T01:19:24;9.60;99.90
44166;DHT22;30476;53.468;9.826;2023-04-25T01:21:50;9.60;99.90
44166;DHT22;30476;53.468;9.826;2023-04-25T01:24:44;9.50;99.90
44166;DHT22;30476;53.468;9.826;2023-04-25T01:27:10;9.60;99.90
44166;DHT22;30476;53.468;9.826;2023-04-25T01:29:37;9.50;99.90
44166;DHT22;30476;53.468;9.826;2023-04-25T01:32:03;9.50;99.90
44166;DHT22;30476;53.468;9.826;2023-04-25T01:34:30;9.40;99.90
44166;DHT22;30476;53.468;9.826;2023-04-25T01:36:55;9.40;99.90
44166;DHT22;30476;53.468;9.826;2023-04-25T01:39:21;9.40;99.90
44166;DHT22;30476;53.468;9.826;2023-04-25T01:41:48;9.40;99.90
44166;DHT22;30476;53.468;9.826;2023-04-25T01:44:14;9.30;99.90
44166;DHT22;30476;53.468;9.826;2023-04-25T01:46:40;9.30;99.90
44166;DHT22;30476;53.468;9.826;2023-04-25T01:49:06;9.30;99.90
44166;DHT22;30476;53.468;9.826;2023-04-25T01:51:32;9.30;99.90
44166;DHT22;30476;53.468;9.826;2023-04-25T01:53:58;9.20;99.90
44166;DHT22;30476;53.468;9.826;2023-04-25T01:56:24;9.20;99.90
44166;DHT22;30476;53.468;9.826;2023-04-25T01:58:51;9.20;99.90
44166;DHT22;30476;53.468;9.826;2023-04-25T02:01:17;9.20;99.90
44166;DHT22;30476;53.468;9.826;2023-04-25T02:03:43;9.20;99.90
44166;DHT22;30476;53.468;9.826;2023-04-25T02:06:09;9.20;99.90
44166;DHT22;30476;53.468;9.826;2023-04-25T02:08:35;9.10;99.90
44166;DHT22;30476;53.468;9.826;2023-04-25T02:11:02;9.10;99.90
44166;DHT22;30476;53.468;9.826;2023-04-25T02:13:28;9.10;99.90
44166;DHT22;30476;53.468;9.826;2023-04-25T02:15:54;9.10;99.90
44166;DHT22;30476;53.468;9.826;2023-04-25T02:18:20;9.10;99.90
44166;DHT22;30476;53.468;9.826;2023-04-25T02:20:46;9.10;99.90
44166;DHT22;30476;53.468;9.826;2023-04-25T02:23:12;9.10;99.90
44166;DHT22;30476;53.468;9.826;2023-04-25T02:25:38;9.00;99.90
44166;DHT22;30476;53.468;9.826;2023-04-25T02:28:04;9.00;99.90
44166;DHT22;30476;53.468;9.826;2023-04-25T02:30:29;9.00;99.90
44166;DHT22;30476;53.468;9.826;2023-04-25T02:32:55;9.00;99.90
44166;DHT22;30476;53.468;9.826;2023-04-25T02:35:22;9.00;99.90
44166;DHT22;30476;53.468;9.826;2023-04-25T02:37:47;9.00;99.90
44166;DHT22;30476;53.468;9.826;2023-04-25T02:40:13;9.00;99.90
44166;DHT22;30476;53.468;9.826;2023-04-25T02:42:39;8.90;99.90
44166;DHT22;30476;53.468;9.826;2023-04-25T02:45:05;8.90;99.90
44166;DHT22;30476;53.468;9.826;2023-04-25T02:47:31;8.90;99.90
44166;DHT22;30476;53.468;9.826;2023-04-25T02:49:56;8.90;99.90
44166;DHT22;30476;53.468;9.826;2023-04-25T02:52:22;8.90;99.90
44166;DHT22;30476;53.468;9.826;2023-04-25T02:54:48;8.90;99.90
44166;DHT22;30476;53.468;9.826;2023-04-25T02:57:14;8.90;99.90
44166;DHT22;30476;53.468;9.826;2023-04-25T02:59:40;8.80;99.90
44166;DHT22;30476;53.468;9.826;2023-04-25T03:02:06;8.80;99.90
44166;DHT22;30476;53.468;9.826;2023-04-25T03:04:31;8.80;99.90
44166;DHT22;30476;53.468;9.826;2023-04-25T03:06:58;8.80;99.90
44166;DHT22;30476;53.468;9.826;2023-04-25T03:09:24;8.70;99.90
44166;DHT22;30476;53.468;9.826;2023-04-25T03:11:50;8.70;99.90
44166;DHT22;30476;53.468;9.826;2023-04-25T03:14:16;8.70;99.90
44166;DHT22;30476;53.468;9.826;2023-04-25T03:16:42;8.70;99.90
44166;DHT22;30476;53.468;9.826;2023-04-25T03:19:07;8.70;99.90
44166;DHT22;30476;53.468;9.826;2023-04-25T03:21:34;8.70;99.90
44166;DHT22;30476;53.468;9.826;2023-04-25T03:24:01;8.60;99.90
44166;DHT22;30476;53.468;9.826;2023-04-25T03:26:28;8.60;99.90
44166;DHT22;30476;53.468;9.826;2023-04-25T03:28:53;8.50;99.90
44166;DHT22;30476;53.468;9.826;2023-04-25T03:31:20;8.50;99.90
44166;DHT22;30476;53.468;9.826;2023-04-25T03:33:45;8.50;99.90
44166;DHT22;30476;53.468;9.826;2023-04-25T03:36:11;8.40;99.90
44166;DHT22;30476;53.468;9.826;2023-04-25T03:38:37;8.40;99.90
44166;DHT22;30476;53.468;9.826;2023-04-25T03:41:03;8.40;99.90
44166;DHT22;30476;53.468;9.826;2023-04-25T03:43:29;8.30;99.90
44166;DHT22;30476;53.468;9.826;2023-04-25T03:45:54;8.30;99.90
44166;DHT22;30476;53.468;9.826;2023-04-25T03:48:20;8.30;99.90
44166;DHT22;30476;53.468;9.826;2023-04-25T03:50:47;8.30;99.90
44166;DHT22;30476;53.468;9.826;2023-04-25T03:53:13;8.30;99.90
44166;DHT22;30476;53.468;9.826;2023-04-25T03:55:39;8.20;99.90
44166;DHT22;30476;53.468;9.826;2023-04-25T03:58:05;8.30;99.90
44166;DHT22;30476;53.468;9.826;2023-04-25T04:00:31;8.20;99.90
44166;DHT22;30476;53.468;9.826;2023-04-25T04:02:57;8.20;99.90
44166;DHT22;30476;53.468;9.826;2023-04-25T04:05:22;8.20;99.90
44166;DHT22;30476;53.468;9.826;2023-04-25T04:07:48;8.20;99.90
44166;DHT22;30476;53.468;9.826;2023-04-25T04:10:14;8.20;99.90
44166;DHT22;30476;53.468;9.826;2023-04-25T04:12:40;8.10;99.90
44166;DHT22;30476;53.468;9.826;2023-04-25T04:15:06;8.10;99.90
44166;DHT22;30476;53.468;9.826;2023-04-25T04:17:32;8.10;99.90
44166;DHT22;30476;53.468;9.826;2023-04-25T04:19:58;8.10;99.90
44166;DHT22;30476;53.468;9.826;2023-04-25T04:22:24;8.10;99.90
44166;DHT22;30476;53.468;9.826;2023-04-25T04:24:50;8.10;99.90
44166;DHT22;30476;53.468;9.826;2023-04-25T04:27:17;8.10;99.90
44166;DHT22;30476;53.468;9.826;2023-04-25T04:29:43;8.10;99.90
44166;DHT22;30476;53.468;9.826;2023-04-25T04:32:09;8.10;99.90
44166;DHT22;30476;53.468;9.826;2023-04-25T04:34:35;8.10;99.90
44166;DHT22;30476;53.468;9.826;2023-04-25T04:40:23;8.00;99.90
44166;DHT22;30476;53.468;9.826;2023-04-25T04:42:51;8.00;99.90
44166;DHT22;30476;53.468;9.826;2023-04-25T04:45:16;8.00;99.90
44166;DHT22;30476;53.468;9.826;2023-04-25T04:47:43;8.00;99.90
44166;DHT22;30476;53.468;9.826;2023-04-25T04:50:10;8.00;99.90
44166;DHT22;30476;53.468;9.826;2023-04-25T04:52:36;8.00;99.90
44166;DHT22;30476;53.468;9.826;2023-04-25T04:55:04;8.00;99.90
44166;DHT22;30476;53.468;9.826;2023-04-25T04:57:30;8.00;99.90
44166;DHT22;30476;53.468;9.826;2023-04-25T04:59:56;8.00;99.90
44166;DHT22;30476;53.468;9.826;2023-04-25T05:02:22;8.00;99.90
44166;DHT22;30476;53.468;9.826;2023-04-25T05:04:48;8.00;99.90
44166;DHT22;30476;53.468;9.826;2023-04-25T05:07:14;8.10;99.90
44166;DHT22;30476;53.468;9.826;2023-04-25T05:09:40;8.10;99.90
44166;DHT22;30476;53.468;9.826;2023-04-25T05:12:05;8.10;99.90
44166;DHT22;30476;53.468;9.826;2023-04-25T05:14:31;8.10;99.90
44166;DHT22;30476;53.468;9.826;2023-04-25T05:16:57;8.10;99.90
44166;DHT22;30476;53.468;9.826;2023-04-25T05:19:23;8.10;99.90
44166;DHT22;30476;53.468;9.826;2023-04-25T05:21:50;8.10;99.90
44166;DHT22;30476;53.468;9.826;2023-04-25T05:24:16;8.10;99.90
44166;DHT22;30476;53.468;9.826;2023-04-25T05:26:41;8.10;99.90
44166;DHT22;30476;53.468;9.826;2023-04-25T05:29:07;8.00;99.90
44166;DHT22;30476;53.468;9.826;2023-04-25T05:31:33;8.00;99.90
44166;DHT22;30476;53.468;9.826;2023-04-25T05:33:59;8.00;99.90
44166;DHT22;30476;53.468;9.826;2023-04-25T05:36:25;8.00;99.90
44166;DHT22;30476;53.468;9.826;2023-04-25T05:38:51;8.00;99.90
44166;DHT22;30476;53.468;9.826;2023-04-25T05:41:17;8.00;99.90
44166;DHT22;30476;53.468;9.826;2023-04-25T05:43:43;8.00;99.90
44166;DHT22;30476;53.468;9.826;2023-04-25T05:46:12;8.10;99.90
44166;DHT22;30476;53.468;9.826;2023-04-25T05:48:39;8.00;99.90
44166;DHT22;30476;53.468;9.826;2023-04-25T05:51:05;8.10;99.90
44166;DHT22;30476;53.468;9.826;2023-04-25T05:53:31;8.10;99.90
44166;DHT22;30476;53.468;9.826;2023-04-25T05:55:56;8.20;99.90
44166;DHT22;30476;53.468;9.826;2023-04-25T05:58:22;8.20;99.90
44166;DHT22;30476;53.468;9.826;2023-04-25T06:00:48;8.20;99.90
44166;DHT22;30476;53.468;9.826;2023-04-25T06:03:14;8.20;99.90
44166;DHT22;30476;53.468;9.826;2023-04-25T06:05:43;8.20;99.90
44166;DHT22;30476;53.468;9.826;2023-04-25T06:08:10;8.30;99.90
44166;DHT22;30476;53.468;9.826;2023-04-25T06:10:36;8.30;99.90
44166;DHT22;30476;53.468;9.826;2023-04-25T06:13:03;8.30;99.90
44166;DHT22;30476;53.468;9.826;2023-04-25T06:15:29;8.30;99.90
44166;DHT22;30476;53.468;9.826;2023-04-25T06:17:55;8.40;99.90
44166;DHT22;30476;53.468;9.826;2023-04-25T06:20:21;8.40;99.90
44166;DHT22;30476;53.468;9.826;2023-04-25T06:22:49;8.40;99.90
44166;DHT22;30476;53.468;9.826;2023-04-25T06:25:15;8.30;99.90
44166;DHT22;30476;53.468;9.826;2023-04-25T06:27:41;8.40;99.90
44166;DHT22;30476;53.468;9.826;2023-04-25T06:30:07;8.40;99.90
44166;DHT22;30476;53.468;9.826;2023-04-25T06:32:33;8.40;99.90
44166;DHT22;30476;53.468;9.826;2023-04-25T06:35:00;8.40;99.90
44166;DHT22;30476;53.468;9.826;2023-04-25T06:37:26;8.40;99.90
44166;DHT22;30476;53.468;9.826;2023-04-25T06:39:52;8.40;99.90
44166;DHT22;30476;53.468;9.826;2023-04-25T06:42:17;8.40;99.90
44166;DHT22;30476;53.468;9.826;2023-04-25T06:44:43;8.40;99.90
44166;DHT22;30476;53.468;9.826;2023-04-25T06:47:09;8.40;99.90
44166;DHT22;30476;53.468;9.826;2023-04-25T06:49:35;8.40;99.90
44166;DHT22;30476;53.468;9.826;2023-04-25T06:52:01;8.40;99.90
44166;DHT22;30476;53.468;9.826;2023-04-25T06:54:36;8.40;99.90
44166;DHT22;30476;53.468;9.826;2023-04-25T06:57:01;8.50;99.90
44166;DHT22;30476;53.468;9.826;2023-04-25T06:59:27;8.50;99.90
44166;DHT22;30476;53.468;9.826;2023-04-25T07:01:53;8.60;99.90
44166;DHT22;30476;53.468;9.826;2023-04-25T07:04:19;8.70;99.90
44166;DHT22;30476;53.468;9.826;2023-04-25T07:06:45;8.70;99.90
44166;DHT22;30476;53.468;9.826;2023-04-25T07:09:12;8.80;99.90
44166;DHT22;30476;53.468;9.826;2023-04-25T07:11:38;8.80;99.90
44166;DHT22;30476;53.468;9.826;2023-04-25T07:14:04;8.80;99.90
44166;DHT22;30476;53.468;9.826;2023-04-25T07:16:30;8.80;99.90
44166;DHT22;30476;53.468;9.826;2023-04-25T07:18:56;8.90;99.90
44166;DHT22;30476;53.468;9.826;2023-04-25T07:21:21;9.00;99.90
44166;DHT22;30476;53.468;9.826;2023-04-25T07:23:47;8.90;99.90
44166;DHT22;30476;53.468;9.826;2023-04-25T07:26:13;9.00;99.90
44166;DHT22;30476;53.468;9.826;2023-04-25T07:28:39;9.00;99.90
44166;DHT22;30476;53.468;9.826;2023-04-25T07:31:05;9.00;99.90
44166;DHT22;30476;53.468;9.826;2023-04-25T07:33:30;9.00;99.90
44166;DHT22;30476;53.468;9.826;2023-04-25T07:35:56;9.00;99.90
44166;DHT22;30476;53.468;9.826;2023-04-25T07:38:22;9.00;99.90
44166;DHT22;30476;53.468;9.826;2023-04-25T07:40:48;9.00;99.90
44166;DHT22;30476;53.468;9.826;2023-04-25T07:43:14;9.10;99.90
44166;DHT22;30476;53.468;9.826;2023-04-25T07:45:45;9.10;99.90
44166;DHT22;30476;53.468;9.826;2023-04-25T07:48:16;9.20;99.90
44166;DHT22;30476;53.468;9.826;2023-04-25T07:50:43;9.30;99.90
44166;DHT22;30476;53.468;9.826;2023-04-25T07:53:09;9.30;99.90
44166;DHT22;30476;53.468;9.826;2023-04-25T07:55:35;9.40;99.90
44166;DHT22;30476;53.468;9.826;2023-04-25T07:58:02;9.40;99.90
44166;DHT22;30476;53.468;9.826;2023-04-25T08:00:28;9.50;99.90
44166;DHT22;30476;53.468;9.826;2023-04-25T08:02:54;9.60;99.90
44166;DHT22;30476;53.468;9.826;2023-04-25T08:05:20;9.70;99.90
44166;DHT22;30476;53.468;9.826;2023-04-25T08:07:46;9.80;99.90
44166;DHT22;30476;53.468;9.826;2023-04-25T08:10:11;9.90;99.90
44166;DHT22;30476;53.468;9.826;2023-04-25T08:12:37;10.00;99.90
44166;DHT22;30476;53.468;9.826;2023-04-25T08:15:04;10.10;99.90
44166;DHT22;30476;53.468;9.826;2023-04-25T08:17:30;10.10;99.90
44166;DHT22;30476;53.468;9.826;2023-04-25T08:19:56;10.20;99.90
44166;DHT22;30476;53.468;9.826;2023-04-25T08:22:22;10.20;99.90
44166;DHT22;30476;53.468;9.826;2023-04-25T08:24:48;10.20;99.90
44166;DHT22;30476;53.468;9.826;2023-04-25T08:27:14;10.30;99.90
44166;DHT22;30476;53.468;9.826;2023-04-25T08:29:41;10.30;99.90
44166;DHT22;30476;53.468;9.826;2023-04-25T08:32:07;10.40;99.90
44166;DHT22;30476;53.468;9.826;2023-04-25T08:34:33;10.40;99.90
44166;DHT22;30476;53.468;9.826;2023-04-25T08:36:58;10.50;99.90
44166;DHT22;30476;53.468;9.826;2023-04-25T08:39:24;10.50;99.90
44166;DHT22;30476;53.468;9.826;2023-04-25T08:41:50;10.60;99.90
44166;DHT22;30476;53.468;9.826;2023-04-25T08:44:16;10.60;99.90
44166;DHT22;30476;53.468;9.826;2023-04-25T08:46:42;10.80;99.90
44166;DHT22;30476;53.468;9.826;2023-04-25T08:49:11;10.80;99.90
44166;DHT22;30476;53.468;9.826;2023-04-25T08:51:44;10.90;99.90
44166;DHT22;30476;53.468;9.826;2023-04-25T08:54:13;11.10;99.90
44166;DHT22;30476;53.468;9.826;2023-04-25T08:56:41;11.10;99.90
44166;DHT22;30476;53.468;9.826;2023-04-25T08:59:07;11.20;99.90
44166;DHT22;30476;53.468;9.826;2023-04-25T09:01:36;11.20;99.90
44166;DHT22;30476;53.468;9.826;2023-04-25T09:04:02;11.10;99.90
44166;DHT22;30476;53.468;9.826;2023-04-25T09:06:29;10.90;99.90
44166;DHT22;30476;53.468;9.826;2023-04-25T09:09:06;10.70;99.90
44166;DHT22;30476;53.468;9.826;2023-04-25T09:11:34;10.50;99.90
44166;DHT22;30476;53.468;9.826;2023-04-25T09:14:21;10.20;99.90
44166;DHT22;30476;53.468;9.826;2023-04-25T09:19:29;10.00;99.90
44166;DHT22;30476;53.468;9.826;2023-04-25T09:21:57;9.90;99.90
44166;DHT22;30476;53.468;9.826;2023-04-25T09:24:40;9.70;99.90
44166;DHT22;30476;53.468;9.826;2023-04-25T09:27:11;9.70;99.90
44166;DHT22;30476;53.468;9.826;2023-04-25T09:29:39;9.70;99.90
44166;DHT22;30476;53.468;9.826;2023-04-25T09:34:43;9.70;99.90
44166;DHT22;30476;53.468;9.826;2023-04-25T09:37:10;9.80;99.90
44166;DHT22;30476;53.468;9.826;2023-04-25T09:39:39;9.90;99.90
44166;DHT22;30476;53.468;9.826;2023-04-25T09:42:05;10.00;99.90
44166;DHT22;30476;53.468;9.826;2023-04-25T09:44:31;10.20;99.90
44166;DHT22;30476;53.468;9.826;2023-04-25T09:46:57;10.40;99.90
44166;DHT22;30476;53.468;9.826;2023-04-25T09:49:25;10.60;99.90
44166;DHT22;30476;53.468;9.826;2023-04-25T09:51:57;10.60;99.90
44166;DHT22;30476;53.468;9.826;2023-04-25T09:54:24;10.60;99.90
44166;DHT22;30476;53.468;9.826;2023-04-25T09:56:52;10.60;99.90
44166;DHT22;30476;53.468;9.826;2023-04-25T09:59:21;10.50;99.90
44166;DHT22;30476;53.468;9.826;2023-04-25T10:01:52;10.50;99.90
44166;DHT22;30476;53.468;9.826;2023-04-25T10:04:21;10.50;99.90
44166;DHT22;30476;53.468;9.826;2023-04-25T10:06:49;10.40;99.90
44166;DHT22;30476;53.468;9.826;2023-04-25T10:09:16;10.50;99.90
44166;DHT22;30476;53.468;9.826;2023-04-25T10:11:45;10.50;99.90
44166;DHT22;30476;53.468;9.826;2023-04-25T10:14:12;10.70;99.90
44166;DHT22;30476;53.468;9.826;2023-04-25T10:16:40;10.70;99.90
44166;DHT22;30476;53.468;9.826;2023-04-25T10:19:07;10.80;99.90
44166;DHT22;30476;53.468;9.826;2023-04-25T10:21:33;11.00;99.90
44166;DHT22;30476;53.468;9.826;2023-04-25T10:24:00;11.20;99.90
44166;DHT22;30476;53.468;9.826;2023-04-25T10:26:26;11.40;99.90
44166;DHT22;30476;53.468;9.826;2023-04-25T10:31:27;11.80;99.90
44166;DHT22;30476;53.468;9.826;2023-04-25T10:33:53;12.00;99.90
44166;DHT22;30476;53.468;9.826;2023-04-25T10:36:23;12.10;99.90
44166;DHT22;30476;53.468;9.826;2023-04-25T10:38:51;12.10;99.90
44166;DHT22;30476;53.468;9.826;2023-04-25T10:41:20;12.00;99.90
44166;DHT22;30476;53.468;9.826;2023-04-25T10:43:48;11.80;99.90
44166;DHT22;30476;53.468;9.826;2023-04-25T10:46:28;11.70;99.90
44166;DHT22;30476;53.468;9.826;2023-04-25T10:49:01;11.50;99.90
44166;DHT22;30476;53.468;9.826;2023-04-25T10:51:29;11.30;99.90
44166;DHT22;30476;53.468;9.826;2023-04-25T10:56:26;11.00;99.90
44166;DHT22;30476;53.468;9.826;2023-04-25T10:58:52;10.90;99.90
44166;DHT22;30476;53.468;9.826;2023-04-25T11:01:36;10.90;99.90
44166;DHT22;30476;53.468;9.826;2023-04-25T11:04:02;10.80;99.90
44166;DHT22;30476;53.468;9.826;2023-04-25T11:06:42;10.80;99.90
44166;DHT22;30476;53.468;9.826;2023-04-25T11:09:11;10.70;99.90
44166;DHT22;30476;53.468;9.826;2023-04-25T11:11:39;10.80;99.90
44166;DHT22;30476;53.468;9.826;2023-04-25T11:14:04;10.80;99.90
44166;DHT22;30476;53.468;9.826;2023-04-25T11:16:30;10.90;99.90
44166;DHT22;30476;53.468;9.826;2023-04-25T11:18:58;10.90;99.90
44166;DHT22;30476;53.468;9.826;2023-04-25T11:21:25;11.00;99.90
44166;DHT22;30476;53.468;9.826;2023-04-25T11:23:54;11.10;99.90
44166;DHT22;30476;53.468;9.826;2023-04-25T11:26:20;11.20;99.90
44166;DHT22;30476;53.468;9.826;2023-04-25T11:28:46;11.40;99.90
44166;DHT22;30476;53.468;9.826;2023-04-25T11:31:12;11.50;99.90
44166;DHT22;30476;53.468;9.826;2023-04-25T11:33:38;11.80;99.90
44166;DHT22;30476;53.468;9.826;2023-04-25T11:36:06;12.10;99.90
44166;DHT22;30476;53.468;9.826;2023-04-25T11:38:32;12.40;99.90
44166;DHT22;30476;53.468;9.826;2023-04-25T11:40:58;12.70;99.90
44166;DHT22;30476;53.468;9.826;2023-04-25T11:43:25;12.80;99.80
44166;DHT22;30476;53.468;9.826;2023-04-25T11:45:51;12.90;98.90
44166;DHT22;30476;53.468;9.826;2023-04-25T11:48:18;12.90;98.40
44166;DHT22;30476;53.468;9.826;2023-04-25T11:50:44;12.80;97.40
44166;DHT22;30476;53.468;9.826;2023-04-25T11:53:10;12.70;97.60
44166;DHT22;30476;53.468;9.826;2023-04-25T11:55:37;12.50;98.60
44166;DHT22;30476;53.468;9.826;2023-04-25T11:58:04;12.40;98.40
44166;DHT22;30476;53.468;9.826;2023-04-25T12:00:30;12.30;98.30
44166;DHT22;30476;53.468;9.826;2023-04-25T12:02:57;12.20;98.60
44166;DHT22;30476;53.468;9.826;2023-04-25T12:05:25;12.30;99.00
44166;DHT22;30476;53.468;9.826;2023-04-25T12:07:51;12.30;98.30
44166;DHT22;30476;53.468;9.826;2023-04-25T12:10:18;12.30;97.70
44166;DHT22;30476;53.468;9.826;2023-04-25T12:12:45;12.40;98.00
44166;DHT22;30476;53.468;9.826;2023-04-25T12:15:13;12.30;97.40
44166;DHT22;30476;53.468;9.826;2023-04-25T12:17:45;12.40;95.10
44166;DHT22;30476;53.468;9.826;2023-04-25T12:20:24;12.40;95.60
44166;DHT22;30476;53.468;9.826;2023-04-25T12:22:52;12.50;96.00
44166;DHT22;30476;53.468;9.826;2023-04-25T12:25:38;12.70;95.90
44166;DHT22;30476;53.468;9.826;2023-04-25T12:28:15;12.70;94.80
44166;DHT22;30476;53.468;9.826;2023-04-25T12:31:01;12.70;95.10
44166;DHT22;30476;53.468;9.826;2023-04-25T12:33:36;12.50;96.10
44166;DHT22;30476;53.468;9.826;2023-04-25T12:36:04;12.40;97.40
44166;DHT22;30476;53.468;9.826;2023-04-25T12:38:38;12.30;97.70
44166;DHT22;30476;53.468;9.826;2023-04-25T12:41:05;12.10;97.90
44166;DHT22;30476;53.468;9.826;2023-04-25T12:43:31;12.00;98.30
44166;DHT22;30476;53.468;9.826;2023-04-25T12:45:57;12.10;96.90
44166;DHT22;30476;53.468;9.826;2023-04-25T12:48:23;12.20;95.90
44166;DHT22;30476;53.468;9.826;2023-04-25T12:50:50;12.20;96.40
44166;DHT22;30476;53.468;9.826;2023-04-25T12:53:18;12.30;97.20
44166;DHT22;30476;53.468;9.826;2023-04-25T12:55:44;12.40;96.70
44166;DHT22;30476;53.468;9.826;2023-04-25T12:58:14;12.50;96.90
44166;DHT22;30476;53.468;9.826;2023-04-25T13:00:39;12.60;97.40
44166;DHT22;30476;53.468;9.826;2023-04-25T13:03:05;12.70;98.10
44166;DHT22;30476;53.468;9.826;2023-04-25T13:05:31;12.80;97.30
44166;DHT22;30476;53.468;9.826;2023-04-25T13:07:57;12.90;97.40
44166;DHT22;30476;53.468;9.826;2023-04-25T13:10:23;13.10;97.60
44166;DHT22;30476;53.468;9.826;2023-04-25T13:12:48;13.30;98.60
44166;DHT22;30476;53.468;9.826;2023-04-25T13:15:14;13.50;96.20
44166;DHT22;30476;53.468;9.826;2023-04-25T13:17:41;13.70;97.20
44166;DHT22;30476;53.468;9.826;2023-04-25T13:20:08;13.80;96.70
44166;DHT22;30476;53.468;9.826;2023-04-25T13:22:38;13.80;96.40
44166;DHT22;30476;53.468;9.826;2023-04-25T13:25:06;13.90;96.00
44166;DHT22;30476;53.468;9.826;2023-04-25T13:27:32;13.80;94.90
44166;DHT22;30476;53.468;9.826;2023-04-25T13:30:00;13.60;95.10
44166;DHT22;30476;53.468;9.826;2023-04-25T13:32:27;13.20;95.30
44166;DHT22;30476;53.468;9.826;2023-04-25T13:34:53;12.90;96.10
44166;DHT22;30476;53.468;9.826;2023-04-25T13:37:18;12.60;96.90
44166;DHT22;30476;53.468;9.826;2023-04-25T13:39:44;12.40;97.50
44166;DHT22;30476;53.468;9.826;2023-04-25T13:42:10;12.20;97.70
44166;DHT22;30476;53.468;9.826;2023-04-25T13:44:36;12.20;98.20
44166;DHT22;30476;53.468;9.826;2023-04-25T13:47:02;12.10;98.70
44166;DHT22;30476;53.468;9.826;2023-04-25T13:49:28;12.20;98.60
44166;DHT22;30476;53.468;9.826;2023-04-25T13:51:54;12.30;97.10
44166;DHT22;30476;53.468;9.826;2023-04-25T13:54:20;12.50;95.50
44166;DHT22;30476;53.468;9.826;2023-04-25T13:56:46;12.70;95.50
44166;DHT22;30476;53.468;9.826;2023-04-25T13:59:12;12.70;95.00
44166;DHT22;30476;53.468;9.826;2023-04-25T14:01:37;12.70;95.30
44166;DHT22;30476;53.468;9.826;2023-04-25T14:04:03;12.50;95.70
44166;DHT22;30476;53.468;9.826;2023-04-25T14:06:30;12.20;96.50
44166;DHT22;30476;53.468;9.826;2023-04-25T14:08:56;12.10;96.60
44166;DHT22;30476;53.468;9.826;2023-04-25T14:11:22;11.90;96.50
44166;DHT22;30476;53.468;9.826;2023-04-25T14:13:48;11.70;97.30
44166;DHT22;30476;53.468;9.826;2023-04-25T14:16:15;11.70;97.90
44166;DHT22;30476;53.468;9.826;2023-04-25T14:18:41;11.70;97.80
44166;DHT22;30476;53.468;9.826;2023-04-25T14:21:07;11.60;97.50
44166;DHT22;30476;53.468;9.826;2023-04-25T14:23:33;11.70;98.00
44166;DHT22;30476;53.468;9.826;2023-04-25T14:25:59;11.70;98.10
44166;DHT22;30476;53.468;9.826;2023-04-25T14:28:24;11.70;98.40
44166;DHT22;30476;53.468;9.826;2023-04-25T14:30:50;11.80;98.60
44166;DHT22;30476;53.468;9.826;2023-04-25T14:33:16;11.80;98.00
44166;DHT22;30476;53.468;9.826;2023-04-25T14:35:42;11.80;97.80
44166;DHT22;30476;53.468;9.826;2023-04-25T14:38:08;11.60;96.50
44166;DHT22;30476;53.468;9.826;2023-04-25T14:40:34;11.60;96.80
44166;DHT22;30476;53.468;9.826;2023-04-25T14:42:59;11.40;96.80
44166;DHT22;30476;53.468;9.826;2023-04-25T14:45:25;11.40;97.40
44166;DHT22;30476;53.468;9.826;2023-04-25T14:47:51;11.30;97.20
44166;DHT22;30476;53.468;9.826;2023-04-25T14:50:17;11.30;97.30
44166;DHT22;30476;53.468;9.826;2023-04-25T14:52:43;11.30;97.30
44166;DHT22;30476;53.468;9.826;2023-04-25T14:55:10;11.40;96.10
44166;DHT22;30476;53.468;9.826;2023-04-25T14:57:36;11.30;96.30
44166;DHT22;30476;53.468;9.826;2023-04-25T15:00:03;11.40;95.60
44166;DHT22;30476;53.468;9.826;2023-04-25T15:02:30;11.40;96.20
44166;DHT22;30476;53.468;9.826;2023-04-25T15:04:57;11.50;95.30
44166;DHT22;30476;53.468;9.826;2023-04-25T15:07:22;11.50;95.40
44166;DHT22;30476;53.468;9.826;2023-04-25T15:09:48;11.60;95.30
44166;DHT22;30476;53.468;9.826;2023-04-25T15:12:14;11.50;94.90
44166;DHT22;30476;53.468;9.826;2023-04-25T15:14:40;11.40;95.70
44166;DHT22;30476;53.468;9.826;2023-04-25T15:17:05;11.30;96.00
44166;DHT22;30476;53.468;9.826;2023-04-25T15:19:32;11.20;96.30
44166;DHT22;30476;53.468;9.826;2023-04-25T15:21:58;11.10;96.60
44166;DHT22;30476;53.468;9.826;2023-04-25T15:24:26;11.10;96.40
44166;DHT22;30476;53.468;9.826;2023-04-25T15:26:52;11.00;96.80
44166;DHT22;30476;53.468;9.826;2023-04-25T15:29:18;11.10;96.90
44166;DHT22;30476;53.468;9.826;2023-04-25T15:31:44;11.10;96.30
44166;DHT22;30476;53.468;9.826;2023-04-25T15:34:10;11.10;96.40
44166;DHT22;30476;53.468;9.826;2023-04-25T15:36:36;11.20;96.40
44166;DHT22;30476;53.468;9.826;2023-04-25T15:39:02;11.10;96.20
44166;DHT22;30476;53.468;9.826;2023-04-25T15:41:28;11.10;96.30
44166;DHT22;30476;53.468;9.826;2023-04-25T15:43:54;11.20;96.30
44166;DHT22;30476;53.468;9.826;2023-04-25T15:46:20;11.10;95.80
44166;DHT22;30476;53.468;9.826;2023-04-25T15:48:48;11.10;95.30
44166;DHT22;30476;53.468;9.826;2023-04-25T15:51:14;11.00;95.60